Reed Point, MT (59069)

3:43 AM MST on February 22, 2017 (GMT -0700)
Yellowstone River Ranch | | Change Station

Elev 4066 ft 45.68 °N, 109.40 °W | Updated 0 second ago

Partly Cloudy
Partly Cloudy
38.5 °F
Feels Like 33 °F
N
8.5
Wind Variable Wind from SSE
Gusts 9.0 mph

Today
High -- | Low -- °F
--% Chance of Precip.
Yesterday
High -- | Low -- °F
Precip. -- in
Pressure 29.78 in
Visibility 10.0 miles
Clouds Clear
Windchill 33 °F
Dew Point 25 °F
Humidity 58%
Rainfall 0.00 in
Snow Depth Not available.
7:08 AM 5:55 PM
Waning Crescent, 18% visible
METAR KLVM 220953Z AUTO 26025G32KT 10SM CLR 02/M05 A2979 RMK AO2 PK WND 26035/0932 SLP083 T00221050
Pressure 29.78 in
Visibility 10.0 miles
Clouds Clear
Windchill 33 °F
Dew Point 25 °F
Humidity 58%
Rainfall 0.00 in
Snow Depth Not available.
7:08 AM 5:55 PM
Waning Crescent, 18% visible
METAR KLVM 220953Z AUTO 26025G32KT 10SM CLR 02/M05 A2979 RMK AO2 PK WND 26035/0932 SLP083 T00221050

Get Your Daily Forecast Email!

Thanks for signing up!

Be on the lookout for a verification email in your inbox.

You'll start receiving the daily forecast at 8 AM.

×

10-Day Weather Forecast

Almanac

Astronomy

Feb. 22, 2017 Rise Set
Actual Time
Civil Twilight
Nautical Twilight
Astronomical Twilight
Moon
Length of Visible Light
Length of Day
Tomorrow will be .
, % of the Moon is Illuminated

Today's Extremes

State Highs State Lows

Community

WunderPhotos

Upload Photos

1,962,540 photos uploaded!

WunderBlog® & News

Nearby

Air Quality

  Air Quality AQ Index Pollutant
Not available.

Snow Depth

Station Depth Elevation

Earthquake Activity

City Distance Mag. Time & Date
Minimum magnitude displayed is 2.5.

Coastal Water Temperatures

Place Temperature

Stations

Nearby Weather Stations

Station Location Temp. Windchill Dew Point Humidity Wind Precip. Elev Updated Type
                   

Watches & Warnings

There are currently no watches in effect.